sensor_id;sensor_type;location;lat;lon;timestamp;pressure;altitude;pressure_sealevel;temperature;humidity
60240;BME280;46102;39.012;-7.064;2023-02-04T00:01:55;99875.31;;;9.68;50.61
60240;BME280;46102;39.012;-7.064;2023-02-04T00:03:56;99869.84;;;9.68;50.47
60240;BME280;46102;39.012;-7.064;2023-02-04T00:05:57;99865.44;;;9.67;50.41
60240;BME280;46102;39.012;-7.064;2023-02-04T00:07:58;99870.09;;;9.67;50.10
60240;BME280;46102;39.012;-7.064;2023-02-04T00:09:59;99873.38;;;9.69;50.22
60240;BME280;46102;39.012;-7.064;2023-02-04T00:12:00;99872.56;;;9.68;50.28
60240;BME280;46102;39.012;-7.064;2023-02-04T00:14:01;99871.72;;;9.73;50.02
60240;BME280;46102;39.012;-7.064;2023-02-04T00:16:01;99871.44;;;9.74;50.23
60240;BME280;46102;39.012;-7.064;2023-02-04T00:18:02;99868.97;;;9.78;50.45
60240;BME280;46102;39.012;-7.064;2023-02-04T00:20:05;99860.19;;;9.76;50.31
60240;BME280;46102;39.012;-7.064;2023-02-04T00:22:06;99866.78;;;9.80;50.31
60240;BME280;46102;39.012;-7.064;2023-02-04T00:24:08;99864.03;;;9.80;50.29
60240;BME280;46102;39.012;-7.064;2023-02-04T00:26:09;99863.22;;;9.79;50.77
60240;BME280;46102;39.012;-7.064;2023-02-04T00:28:10;99859.34;;;9.86;50.74
60240;BME280;46102;39.012;-7.064;2023-02-04T00:30:11;99853.88;;;9.80;50.92
60240;BME280;46102;39.012;-7.064;2023-02-04T00:32:14;99855.22;;;9.83;50.60
60240;BME280;46102;39.012;-7.064;2023-02-04T00:34:15;99863.22;;;9.74;51.00
60240;BME280;46102;39.012;-7.064;2023-02-04T00:36:17;99849.81;;;9.73;51.06
60240;BME280;46102;39.012;-7.064;2023-02-04T00:38:18;99848.16;;;9.72;51.35
60240;BME280;46102;39.012;-7.064;2023-02-04T00:40:20;99844.59;;;9.71;51.37
60240;BME280;46102;39.012;-7.064;2023-02-04T00:42:21;99846.53;;;9.71;51.52
60240;BME280;46102;39.012;-7.064;2023-02-04T00:44:22;99839.16;;;9.66;51.68
60240;BME280;46102;39.012;-7.064;2023-02-04T00:46:23;99838.06;;;9.62;51.40
60240;BME280;46102;39.012;-7.064;2023-02-04T00:48:24;99839.16;;;9.61;51.46
60240;BME280;46102;39.012;-7.064;2023-02-04T00:50:25;99829.59;;;9.53;51.71
60240;BME280;46102;39.012;-7.064;2023-02-04T00:52:26;99832.03;;;9.60;51.97
60240;BME280;46102;39.012;-7.064;2023-02-04T00:54:26;99831.53;;;9.53;51.75
60240;BME280;46102;39.012;-7.064;2023-02-04T00:56:27;99826.84;;;9.53;52.14
60240;BME280;46102;39.012;-7.064;2023-02-04T00:58:28;99827.44;;;9.50;52.14
60240;BME280;46102;39.012;-7.064;2023-02-04T01:00:29;99821.41;;;9.48;52.17
60240;BME280;46102;39.012;-7.064;2023-02-04T01:02:30;99829.63;;;9.48;52.03
60240;BME280;46102;39.012;-7.064;2023-02-04T01:04:31;99831.25;;;9.49;52.03
60240;BME280;46102;39.012;-7.064;2023-02-04T01:06:32;99829.06;;;9.46;52.07
60240;BME280;46102;39.012;-7.064;2023-02-04T01:08:33;99820.25;;;9.54;52.05
60240;BME280;46102;39.012;-7.064;2023-02-04T01:10:33;99822.78;;;9.46;52.04
60240;BME280;46102;39.012;-7.064;2023-02-04T01:12:34;99814.28;;;9.42;52.69
60240;BME280;46102;39.012;-7.064;2023-02-04T01:14:35;99822.78;;;9.46;52.61
60240;BME280;46102;39.012;-7.064;2023-02-04T01:16:36;99823.59;;;9.41;52.51
60240;BME280;46102;39.012;-7.064;2023-02-04T01:18:37;99819.22;;;9.40;52.58
60240;BME280;46102;39.012;-7.064;2023-02-04T01:20:37;99815.94;;;9.38;52.49
60240;BME280;46102;39.012;-7.064;2023-02-04T01:22:38;99823.06;;;9.39;53.23
60240;BME280;46102;39.012;-7.064;2023-02-04T01:24:39;99829.38;;;9.34;53.08
60240;BME280;46102;39.012;-7.064;2023-02-04T01:27:06;99823.63;;;9.36;52.74
60240;BME280;46102;39.012;-7.064;2023-02-04T01:29:07;99819.53;;;9.33;52.78
60240;BME280;46102;39.012;-7.064;2023-02-04T01:31:08;99816.78;;;9.33;52.86
60240;BME280;46102;39.012;-7.064;2023-02-04T01:33:08;99817.03;;;9.32;52.98
60240;BME280;46102;39.012;-7.064;2023-02-04T01:35:09;99813.50;;;9.31;53.24
60240;BME280;46102;39.012;-7.064;2023-02-04T01:37:10;99815.97;;;9.33;53.01
60240;BME280;46102;39.012;-7.064;2023-02-04T01:39:11;99811.88;;;9.25;53.50
60240;BME280;46102;39.012;-7.064;2023-02-04T01:41:11;99817.09;;;9.22;53.77
60240;BME280;46102;39.012;-7.064;2023-02-04T01:43:12;99820.91;;;9.21;53.65
60240;BME280;46102;39.012;-7.064;2023-02-04T01:45:13;99821.47;;;9.17;53.31
60240;BME280;46102;39.012;-7.064;2023-02-04T01:47:14;99828.59;;;9.13;53.64
60240;BME280;46102;39.012;-7.064;2023-02-04T01:49:15;99825.31;;;9.16;54.07
60240;BME280;46102;39.012;-7.064;2023-02-04T01:51:24;99822.03;;;9.09;53.92
60240;BME280;46102;39.012;-7.064;2023-02-04T01:53:27;99826.16;;;9.07;53.76
60240;BME280;46102;39.012;-7.064;2023-02-04T01:55:30;99830.25;;;9.04;54.37
60240;BME280;46102;39.012;-7.064;2023-02-04T01:57:34;99833.84;;;8.94;54.32
60240;BME280;46102;39.012;-7.064;2023-02-04T01:59:36;99832.72;;;8.95;54.61
60240;BME280;46102;39.012;-7.064;2023-02-04T02:01:43;99834.91;;;8.93;54.07
60240;BME280;46102;39.012;-7.064;2023-02-04T02:03:45;99830.00;;;8.90;54.32
60240;BME280;46102;39.012;-7.064;2023-02-04T02:05:51;99834.91;;;8.93;54.58
60240;BME280;46102;39.012;-7.064;2023-02-04T02:07:55;99837.38;;;8.95;54.00
60240;BME280;46102;39.012;-7.064;2023-02-04T02:09:57;99843.13;;;8.88;55.04
60240;BME280;46102;39.012;-7.064;2023-02-04T02:11:59;99836.31;;;8.86;54.35
60240;BME280;46102;39.012;-7.064;2023-02-04T02:14:03;99838.50;;;8.84;54.77
60240;BME280;46102;39.012;-7.064;2023-02-04T02:16:04;99842.06;;;8.79;54.79
60240;BME280;46102;39.012;-7.064;2023-02-04T02:18:06;99841.50;;;8.77;54.77
60240;BME280;46102;39.012;-7.064;2023-02-04T02:20:13;99834.41;;;8.76;54.79
60240;BME280;46102;39.012;-7.064;2023-02-04T02:22:20;99836.28;;;8.75;54.96
60240;BME280;46102;39.012;-7.064;2023-02-04T02:26:29;99828.91;;;8.66;55.14
60240;BME280;46102;39.012;-7.064;2023-02-04T02:28:30;99831.66;;;8.66;54.97
60240;BME280;46102;39.012;-7.064;2023-02-04T02:30:30;99832.19;;;8.68;55.45
60240;BME280;46102;39.012;-7.064;2023-02-04T02:32:32;99829.47;;;8.68;55.15
60240;BME280;46102;39.012;-7.064;2023-02-04T02:34:34;99835.75;;;8.63;55.40
60240;BME280;46102;39.012;-7.064;2023-02-04T02:36:36;99824.28;;;8.56;55.48
60240;BME280;46102;39.012;-7.064;2023-02-04T02:38:38;99826.72;;;8.52;55.91
60240;BME280;46102;39.012;-7.064;2023-02-04T02:40:39;99836.28;;;8.50;55.75
60240;BME280;46102;39.012;-7.064;2023-02-04T02:42:41;99834.94;;;8.47;55.55
60240;BME280;46102;39.012;-7.064;2023-02-04T02:44:44;99836.28;;;8.50;55.64
60240;BME280;46102;39.012;-7.064;2023-02-04T02:46:46;99828.66;;;8.52;55.69
60240;BME280;46102;39.012;-7.064;2023-02-04T02:48:47;99828.09;;;8.50;55.55
60240;BME280;46102;39.012;-7.064;2023-02-04T02:50:48;99836.84;;;8.47;55.20
60240;BME280;46102;39.012;-7.064;2023-02-04T02:52:50;99835.47;;;8.49;54.89
60240;BME280;46102;39.012;-7.064;2023-02-04T02:54:51;99840.41;;;8.47;55.32
60240;BME280;46102;39.012;-7.064;2023-02-04T02:56:53;99835.75;;;8.48;54.79
60240;BME280;46102;39.012;-7.064;2023-02-04T02:59:14;99820.16;;;8.48;54.64
60240;BME280;46102;39.012;-7.064;2023-02-04T03:01:15;99830.81;;;8.55;54.25
60240;BME280;46102;39.012;-7.064;2023-02-04T03:03:20;99837.13;;;8.50;54.16
60240;BME280;46102;39.012;-7.064;2023-02-04T03:05:23;99826.97;;;8.51;53.77
60240;BME280;46102;39.012;-7.064;2023-02-04T03:07:24;99833.00;;;8.48;54.33
60240;BME280;46102;39.012;-7.064;2023-02-04T03:09:26;99833.56;;;8.45;55.02
60240;BME280;46102;39.012;-7.064;2023-02-04T03:11:28;99831.34;;;8.42;54.66
60240;BME280;46102;39.012;-7.064;2023-02-04T03:13:30;99833.56;;;8.45;54.09
60240;BME280;46102;39.012;-7.064;2023-02-04T03:15:32;99831.09;;;8.43;54.67
60240;BME280;46102;39.012;-7.064;2023-02-04T03:17:33;99829.16;;;8.39;54.56
60240;BME280;46102;39.012;-7.064;2023-02-04T03:19:35;99834.31;;;8.35;54.78
60240;BME280;46102;39.012;-7.064;2023-02-04T03:21:38;99831.31;;;8.31;55.05
60240;BME280;46102;39.012;-7.064;2023-02-04T03:23:39;99829.97;;;8.29;54.56
60240;BME280;46102;39.012;-7.064;2023-02-04T03:25:40;99829.41;;;8.27;54.73
60240;BME280;46102;39.012;-7.064;2023-02-04T03:27:41;99820.38;;;8.31;54.63
60240;BME280;46102;39.012;-7.064;2023-02-04T03:29:44;99825.03;;;8.31;54.64
60240;BME280;46102;39.012;-7.064;2023-02-04T03:31:45;99822.56;;;8.34;54.49
60240;BME280;46102;39.012;-7.064;2023-02-04T03:33:45;99829.97;;;8.39;54.41
60240;BME280;46102;39.012;-7.064;2023-02-04T03:35:46;99834.38;;;8.40;54.70
60240;BME280;46102;39.012;-7.064;2023-02-04T03:37:47;99828.91;;;8.45;54.37
60240;BME280;46102;39.012;-7.064;2023-02-04T03:39:48;99827.00;;;8.41;54.35
60240;BME280;46102;39.012;-7.064;2023-02-04T03:41:49;99824.78;;;8.38;54.24
60240;BME280;46102;39.012;-7.064;2023-02-04T03:43:49;99829.41;;;8.37;54.20
60240;BME280;46102;39.012;-7.064;2023-02-04T03:45:50;99832.13;;;8.37;54.85
60240;BME280;46102;39.012;-7.064;2023-02-04T03:47:51;99829.16;;;8.39;54.19
60240;BME280;46102;39.012;-7.064;2023-02-04T03:49:52;99829.97;;;8.29;55.29
60240;BME280;46102;39.012;-7.064;2023-02-04T03:51:53;99832.69;;;8.29;54.69
60240;BME280;46102;39.012;-7.064;2023-02-04T03:53:54;99833.50;;;8.29;54.82
60240;BME280;46102;39.012;-7.064;2023-02-04T03:55:54;99839.25;;;8.28;55.63
60240;BME280;46102;39.012;-7.064;2023-02-04T03:57:55;99838.69;;;8.26;54.90
60240;BME280;46102;39.012;-7.064;2023-02-04T03:59:56;99834.03;;;8.21;55.44
60240;BME280;46102;39.012;-7.064;2023-02-04T04:01:57;99835.13;;;8.20;55.46
60240;BME280;46102;39.012;-7.064;2023-02-04T04:03:58;99837.31;;;8.23;55.72
60240;BME280;46102;39.012;-7.064;2023-02-04T04:05:59;99840.59;;;8.15;55.39
60240;BME280;46102;39.012;-7.064;2023-02-04T04:08:00;99834.84;;;8.17;55.96
60240;BME280;46102;39.012;-7.064;2023-02-04T04:10:01;99834.84;;;8.17;55.42
60240;BME280;46102;39.012;-7.064;2023-02-04T04:12:02;99832.91;;;8.07;55.84
60240;BME280;46102;39.012;-7.064;2023-02-04T04:14:04;99831.56;;;8.09;55.83
60240;BME280;46102;39.012;-7.064;2023-02-04T04:16:05;99831.00;;;8.02;55.87
60240;BME280;46102;39.012;-7.064;2023-02-04T04:18:06;99830.69;;;7.99;55.97
60240;BME280;46102;39.012;-7.064;2023-02-04T04:20:07;99829.88;;;7.93;56.00
60240;BME280;46102;39.012;-7.064;2023-02-04T04:22:08;99824.41;;;7.93;55.85
60240;BME280;46102;39.012;-7.064;2023-02-04T04:24:09;99828.22;;;7.92;56.06
60240;BME280;46102;39.012;-7.064;2023-02-04T04:26:10;99821.13;;;7.91;56.36
60240;BME280;46102;39.012;-7.064;2023-02-04T04:28:10;99826.84;;;7.95;56.66
60240;BME280;46102;39.012;-7.064;2023-02-04T04:30:11;99835.34;;;7.93;56.17
60240;BME280;46102;39.012;-7.064;2023-02-04T04:32:12;99830.44;;;7.95;56.81
60240;BME280;46102;39.012;-7.064;2023-02-04T04:34:13;99831.00;;;7.97;56.26
60240;BME280;46102;39.012;-7.064;2023-02-04T04:36:14;99831.50;;;7.99;56.63
60240;BME280;46102;39.012;-7.064;2023-02-04T04:38:15;99829.31;;;7.96;55.99
60240;BME280;46102;39.012;-7.064;2023-02-04T04:40:16;99830.13;;;7.97;56.67
60240;BME280;46102;39.012;-7.064;2023-02-04T04:42:17;99826.03;;;7.94;56.63
60240;BME280;46102;39.012;-7.064;2023-02-04T04:44:18;99832.06;;;7.91;56.66
60240;BME280;46102;39.012;-7.064;2023-02-04T04:46:20;99825.47;;;7.92;56.54
60240;BME280;46102;39.012;-7.064;2023-02-04T04:48:21;99828.78;;;7.94;56.20
60240;BME280;46102;39.012;-7.064;2023-02-04T04:50:22;99830.41;;;7.90;56.56
60240;BME280;46102;39.012;-7.064;2023-02-04T04:52:23;99826.84;;;7.95;56.97
60240;BME280;46102;39.012;-7.064;2023-02-04T04:54:24;99829.31;;;7.96;56.44
60240;BME280;46102;39.012;-7.064;2023-02-04T04:56:24;99833.41;;;7.93;55.97
60240;BME280;46102;39.012;-7.064;2023-02-04T04:58:25;99830.94;;;7.87;56.18
60240;BME280;46102;39.012;-7.064;2023-02-04T05:00:26;99836.97;;;7.94;56.76
60240;BME280;46102;39.012;-7.064;2023-02-04T05:02:27;99837.53;;;7.96;56.73
60240;BME280;46102;39.012;-7.064;2023-02-04T05:04:28;99827.16;;;7.93;56.44
60240;BME280;46102;39.012;-7.064;2023-02-04T05:06:28;99833.41;;;7.93;56.56
60240;BME280;46102;39.012;-7.064;2023-02-04T05:08:29;99838.63;;;8.00;56.71
60240;BME280;46102;39.012;-7.064;2023-02-04T05:10:30;99835.06;;;7.95;57.07
60240;BME280;46102;39.012;-7.064;2023-02-04T05:12:31;99832.31;;;7.95;56.63
60240;BME280;46102;39.012;-7.064;2023-02-04T05:14:32;99848.47;;;8.01;56.91
60240;BME280;46102;39.012;-7.064;2023-02-04T05:16:33;99839.69;;;7.94;57.27
60240;BME280;46102;39.012;-7.064;2023-02-04T05:18:34;99837.50;;;7.86;57.16
60240;BME280;46102;39.012;-7.064;2023-02-04T05:20:34;99838.59;;;7.85;57.02
60240;BME280;46102;39.012;-7.064;2023-02-04T05:22:35;99846.47;;;7.81;57.39
60240;BME280;46102;39.012;-7.064;2023-02-04T05:24:36;99852.50;;;7.83;57.58
60240;BME280;46102;39.012;-7.064;2023-02-04T05:26:37;99846.47;;;7.76;57.52
60240;BME280;46102;39.012;-7.064;2023-02-04T05:28:37;99846.19;;;7.72;57.23
60240;BME280;46102;39.012;-7.064;2023-02-04T05:30:38;99848.66;;;7.74;57.20
60240;BME280;46102;39.012;-7.064;2023-02-04T05:32:39;99850.88;;;7.77;57.67
60240;BME280;46102;39.012;-7.064;2023-02-04T05:34:40;99845.09;;;7.79;57.43
60240;BME280;46102;39.012;-7.064;2023-02-04T05:36:41;99846.75;;;7.75;57.75
60240;BME280;46102;39.012;-7.064;2023-02-04T05:38:41;99850.81;;;7.72;57.39
60240;BME280;46102;39.012;-7.064;2023-02-04T05:40:42;99853.28;;;7.68;57.66
60240;BME280;46102;39.012;-7.064;2023-02-04T05:42:43;99853.00;;;7.70;57.25
60240;BME280;46102;39.012;-7.064;2023-02-04T05:44:44;99852.47;;;7.73;57.83
60240;BME280;46102;39.012;-7.064;2023-02-04T05:46:44;99853.25;;;7.63;57.71
60240;BME280;46102;39.012;-7.064;2023-02-04T05:48:45;99848.88;;;7.62;58.46
60240;BME280;46102;39.012;-7.064;2023-02-04T05:50:46;99852.97;;;7.60;57.87
60240;BME280;46102;39.012;-7.064;2023-02-04T05:52:47;99852.09;;;7.54;58.38
60240;BME280;46102;39.012;-7.064;2023-02-04T05:54:47;99848.84;;;7.52;57.66
60240;BME280;46102;39.012;-7.064;2023-02-04T05:56:48;99854.88;;;7.59;58.03
60240;BME280;46102;39.012;-7.064;2023-02-04T05:58:51;99851.56;;;7.52;58.36
60240;BME280;46102;39.012;-7.064;2023-02-04T06:00:51;99851.56;;;7.52;57.82
60240;BME280;46102;39.012;-7.064;2023-02-04T06:02:52;99855.94;;;7.58;58.47
60240;BME280;46102;39.012;-7.064;2023-02-04T06:04:53;99857.56;;;7.54;58.06
60240;BME280;46102;39.012;-7.064;2023-02-04T06:06:54;99862.78;;;7.56;57.75
60240;BME280;46102;39.012;-7.064;2023-02-04T06:08:54;99861.13;;;7.55;58.27
60240;BME280;46102;39.012;-7.064;2023-02-04T06:10:55;99870.16;;;7.55;58.03
60240;BME280;46102;39.012;-7.064;2023-02-04T06:12:56;99871.50;;;7.53;58.02
60240;BME280;46102;39.012;-7.064;2023-02-04T06:14:57;99872.06;;;7.55;57.89
60240;BME280;46102;39.012;-7.064;2023-02-04T06:16:58;99866.38;;;7.61;57.50
60240;BME280;46102;39.012;-7.064;2023-02-04T06:18:59;99867.69;;;7.59;57.63
60240;BME280;46102;39.012;-7.064;2023-02-04T06:20:59;99878.59;;;7.54;57.91
60240;BME280;46102;39.012;-7.064;2023-02-04T06:23:04;99871.44;;;7.47;58.24
60240;BME280;46102;39.012;-7.064;2023-02-04T06:25:05;99875.53;;;7.45;58.22
60240;BME280;46102;39.012;-7.064;2023-02-04T06:27:05;99874.75;;;7.49;57.91
60240;BME280;46102;39.012;-7.064;2023-02-04T06:29:06;99875.53;;;7.45;58.33
60240;BME280;46102;39.012;-7.064;2023-02-04T06:31:07;99871.72;;;7.41;58.32
60240;BME280;46102;39.012;-7.064;2023-02-04T06:33:08;99882.13;;;7.49;58.56
60240;BME280;46102;39.012;-7.064;2023-02-04T06:35:09;99874.16;;;7.42;58.63
60240;BME280;46102;39.012;-7.064;2023-02-04T06:37:12;99877.75;;;7.48;58.29
60240;BME280;46102;39.012;-7.064;2023-02-04T06:39:13;99882.63;;;7.41;58.23
60240;BME280;46102;39.012;-7.064;2023-02-04T06:41:14;99878.56;;;7.43;58.70
60240;BME280;46102;39.012;-7.064;2023-02-04T06:43:15;99883.16;;;7.38;58.65
60240;BME280;46102;39.012;-7.064;2023-02-04T06:45:15;99879.03;;;7.35;59.11
60240;BME280;46102;39.012;-7.064;2023-02-04T06:47:16;99885.84;;;7.33;58.81
60240;BME280;46102;39.012;-7.064;2023-02-04T06:49:17;99888.84;;;7.31;58.84
60240;BME280;46102;39.012;-7.064;2023-02-04T06:51:18;99885.28;;;7.30;59.38
60240;BME280;46102;39.012;-7.064;2023-02-04T06:53:18;99879.59;;;7.32;58.90
60240;BME280;46102;39.012;-7.064;2023-02-04T06:55:19;99887.72;;;7.27;58.71
60240;BME280;46102;39.012;-7.064;2023-02-04T06:57:20;99890.72;;;7.25;59.02
60240;BME280;46102;39.012;-7.064;2023-02-04T06:59:21;99889.38;;;7.28;59.11
60240;BME280;46102;39.012;-7.064;2023-02-04T07:01:23;99892.34;;;7.26;59.47
60240;BME280;46102;39.012;-7.064;2023-02-04T07:03:23;99881.44;;;7.26;59.32
60240;BME280;46102;39.012;-7.064;2023-02-04T07:05:24;99889.94;;;7.30;59.50
60240;BME280;46102;39.012;-7.064;2023-02-04T07:07:26;99888.00;;;7.25;58.84
60240;BME280;46102;39.012;-7.064;2023-02-04T07:09:26;99886.09;;;7.31;59.32
60240;BME280;46102;39.012;-7.064;2023-02-04T07:11:27;99892.91;;;7.23;59.44
60240;BME280;46102;39.012;-7.064;2023-02-04T07:13:28;99895.84;;;7.17;59.32
60240;BME280;46102;39.012;-7.064;2023-02-04T07:15:29;99905.09;;;7.16;59.44
60240;BME280;46102;39.012;-7.064;2023-02-04T07:17:30;99902.09;;;7.12;59.35
60240;BME280;46102;39.012;-7.064;2023-02-04T07:19:31;99905.88;;;7.06;59.63
60240;BME280;46102;39.012;-7.064;2023-02-04T07:21:33;99903.56;;;6.93;59.78
60240;BME280;46102;39.012;-7.064;2023-02-04T07:23:33;99904.56;;;6.81;60.05
60240;BME280;46102;39.012;-7.064;2023-02-04T07:25:34;99907.50;;;6.75;60.22
60240;BME280;46102;39.012;-7.064;2023-02-04T07:27:35;99914.00;;;6.68;60.40
60240;BME280;46102;39.012;-7.064;2023-02-04T07:29:36;99914.19;;;6.62;60.49
60240;BME280;46102;39.012;-7.064;2023-02-04T07:31:37;99913.28;;;6.51;61.22
60240;BME280;46102;39.012;-7.064;2023-02-04T07:33:37;99912.94;;;6.42;61.43
60240;BME280;46102;39.012;-7.064;2023-02-04T07:35:38;99916.38;;;6.33;62.12
60240;BME280;46102;39.012;-7.064;2023-02-04T07:37:39;99909.72;;;6.23;62.17
60240;BME280;46102;39.012;-7.064;2023-02-04T07:39:40;99908.84;;;6.18;61.85
60240;BME280;46102;39.012;-7.064;2023-02-04T07:41:40;99910.69;;;6.12;61.78
60240;BME280;46102;39.012;-7.064;2023-02-04T07:43:41;99917.22;;;6.11;62.25
60240;BME280;46102;39.012;-7.064;2023-02-04T07:45:42;99915.00;;;6.08;62.84
60240;BME280;46102;39.012;-7.064;2023-02-04T07:47:43;99914.75;;;6.10;62.48
60240;BME280;46102;39.012;-7.064;2023-02-04T07:49:44;99913.97;;;6.14;62.74
60240;BME280;46102;39.012;-7.064;2023-02-04T07:51:44;99912.97;;;6.20;63.00
60240;BME280;46102;39.012;-7.064;2023-02-04T07:53:45;99921.00;;;6.32;62.70
60240;BME280;46102;39.012;-7.064;2023-02-04T07:55:46;99919.72;;;6.40;62.71
60240;BME280;46102;39.012;-7.064;2023-02-04T07:57:47;99923.94;;;6.53;62.00
60240;BME280;46102;39.012;-7.064;2023-02-04T07:59:48;99918.84;;;6.61;61.99
60240;BME280;46102;39.012;-7.064;2023-02-04T08:01:49;99921.41;;;6.73;61.26
60240;BME280;46102;39.012;-7.064;2023-02-04T08:03:50;99927.53;;;6.85;61.36
60240;BME280;46102;39.012;-7.064;2023-02-04T08:05:51;99925.19;;;6.99;61.00
60240;BME280;46102;39.012;-7.064;2023-02-04T08:07:52;99921.75;;;7.14;60.72
60240;BME280;46102;39.012;-7.064;2023-02-04T08:09:52;99925.13;;;7.26;60.44
60240;BME280;46102;39.012;-7.064;2023-02-04T08:11:53;99926.59;;;7.44;60.37
60240;BME280;46102;39.012;-7.064;2023-02-04T08:13:54;99923.44;;;7.63;59.93
60240;BME280;46102;39.012;-7.064;2023-02-04T08:15:55;99923.53;;;7.83;59.97
60240;BME280;46102;39.012;-7.064;2023-02-04T08:17:56;99914.91;;;8.02;58.94
60240;BME280;46102;39.012;-7.064;2023-02-04T08:19:56;99919.88;;;8.20;58.93
60240;BME280;46102;39.012;-7.064;2023-02-04T08:21:57;99926.00;;;8.48;58.22
60240;BME280;46102;39.012;-7.064;2023-02-04T08:23:58;99913.19;;;8.79;57.81
60240;BME280;46102;39.012;-7.064;2023-02-04T08:25:59;99919.22;;;9.02;56.64
60240;BME280;46102;39.012;-7.064;2023-02-04T08:28:00;99913.19;;;9.15;56.85
60240;BME280;46102;39.012;-7.064;2023-02-04T08:30:00;99924.69;;;9.27;56.11
60240;BME280;46102;39.012;-7.064;2023-02-04T08:32:02;99918.66;;;9.41;55.88
60240;BME280;46102;39.012;-7.064;2023-02-04T08:34:04;99925.22;;;9.55;55.67
60240;BME280;46102;39.012;-7.064;2023-02-04T08:36:06;99923.78;;;9.68;55.02
60240;BME280;46102;39.012;-7.064;2023-02-04T08:38:07;99918.56;;;9.87;54.78
60240;BME280;46102;39.012;-7.064;2023-02-04T08:40:08;99919.28;;;10.08;54.36
60240;BME280;46102;39.012;-7.064;2023-02-04T08:42:09;99924.66;;;10.28;53.90
60240;BME280;46102;39.012;-7.064;2023-02-04T08:44:10;99926.56;;;10.43;53.53
60240;BME280;46102;39.012;-7.064;2023-02-04T08:46:11;99922.34;;;10.61;53.01
60240;BME280;46102;39.012;-7.064;2023-02-04T08:48:11;99920.00;;;10.78;52.65
60240;BME280;46102;39.012;-7.064;2023-02-04T08:50:12;99917.44;;;10.92;52.23
60240;BME280;46102;39.012;-7.064;2023-02-04T08:52:13;99917.69;;;10.96;51.89
60240;BME280;46102;39.012;-7.064;2023-02-04T08:54:14;99916.88;;;10.95;52.03
60240;BME280;46102;39.012;-7.064;2023-02-04T08:56:15;99923.44;;;10.99;51.65
60240;BME280;46102;39.012;-7.064;2023-02-04T08:58:17;99923.38;;;11.04;51.77
60240;BME280;46102;39.012;-7.064;2023-02-04T09:00:18;99925.81;;;11.11;51.48
60240;BME280;46102;39.012;-7.064;2023-02-04T09:02:19;99928.75;;;11.20;51.54
60240;BME280;46102;39.012;-7.064;2023-02-04T09:04:21;99928.63;;;11.35;51.54
60240;BME280;46102;39.012;-7.064;2023-02-04T09:06:22;99931.78;;;11.48;51.16
60240;BME280;46102;39.012;-7.064;2023-02-04T09:08:23;99935.16;;;11.69;51.08
60240;BME280;46102;39.012;-7.064;2023-02-04T09:10:24;99937.72;;;11.89;50.99
60240;BME280;46102;39.012;-7.064;2023-02-04T09:12:24;99945.72;;;12.10;50.50
60240;BME280;46102;39.012;-7.064;2023-02-04T09:14:25;99941.59;;;12.31;49.95
60240;BME280;46102;39.012;-7.064;2023-02-04T09:16:26;99946.81;;;12.52;49.47
60240;BME280;46102;39.012;-7.064;2023-02-04T09:18:27;99950.19;;;12.67;48.58
60240;BME280;46102;39.012;-7.064;2023-02-04T09:20:27;99946.84;;;12.89;47.64
60240;BME280;46102;39.012;-7.064;2023-02-04T09:22:28;99949.22;;;13.15;47.15
60240;BME280;46102;39.012;-7.064;2023-02-04T09:24:29;99946.56;;;13.24;46.15
60240;BME280;46102;39.012;-7.064;2023-02-04T09:26:30;99951.94;;;13.34;46.22
60240;BME280;46102;39.012;-7.064;2023-02-04T09:28:31;99952.28;;;13.46;45.95
60240;BME280;46102;39.012;-7.064;2023-02-04T09:30:32;99955.28;;;13.64;45.93
60240;BME280;46102;39.012;-7.064;2023-02-04T09:32:32;99953.38;;;13.78;45.38
60240;BME280;46102;39.012;-7.064;2023-02-04T09:34:33;99957.56;;;13.89;45.36
60240;BME280;46102;39.012;-7.064;2023-02-04T09:36:34;99953.78;;;13.99;45.09
60240;BME280;46102;39.012;-7.064;2023-02-04T09:38:37;99959.94;;;14.10;44.77
60240;BME280;46102;39.012;-7.064;2023-02-04T09:40:45;99959.19;;;14.18;43.63
60240;BME280;46102;39.012;-7.064;2023-02-04T09:42:48;99958.47;;;14.40;43.77
60240;BME280;46102;39.012;-7.064;2023-02-04T09:44:50;99953.84;;;14.63;42.86
60240;BME280;46102;39.012;-7.064;2023-02-04T09:46:55;99954.03;;;14.81;41.84
60240;BME280;46102;39.012;-7.064;2023-02-04T09:48:58;99950.97;;;15.05;41.77
60240;BME280;46102;39.012;-7.064;2023-02-04T09:51:06;99955.31;;;15.19;41.00
60240;BME280;46102;39.012;-7.064;2023-02-04T09:53:12;99951.78;;;15.28;40.48
60240;BME280;46102;39.012;-7.064;2023-02-04T09:55:18;99954.63;;;15.36;40.33
60240;BME280;46102;39.012;-7.064;2023-02-04T09:57:22;99955.19;;;15.47;39.87
60240;BME280;46102;39.012;-7.064;2023-02-04T09:59:25;99952.41;;;15.47;39.55
60240;BME280;46102;39.012;-7.064;2023-02-04T10:01:26;99954.28;;;15.60;39.16
60240;BME280;46102;39.012;-7.064;2023-02-04T10:03:28;99959.47;;;15.62;39.28
60240;BME280;46102;39.012;-7.064;2023-02-04T10:05:31;99958.44;;;15.72;39.20
60240;BME280;46102;39.012;-7.064;2023-02-04T10:07:33;99956.59;;;15.90;39.53
60240;BME280;46102;39.012;-7.064;2023-02-04T10:09:34;99960.34;;;16.02;39.70
60240;BME280;46102;39.012;-7.064;2023-02-04T10:11:37;99955.81;;;16.07;39.58
60240;BME280;46102;39.012;-7.064;2023-02-04T10:13:45;99959.91;;;16.09;38.99
60240;BME280;46102;39.012;-7.064;2023-02-04T10:15:47;99952.78;;;16.26;39.16
60240;BME280;46102;39.012;-7.064;2023-02-04T10:17:52;99954.63;;;16.48;38.63
60240;BME280;46102;39.012;-7.064;2023-02-04T10:19:54;99953.06;;;16.64;36.83
60240;BME280;46102;39.012;-7.064;2023-02-04T10:21:55;99957.50;;;16.82;36.72
60240;BME280;46102;39.012;-7.064;2023-02-04T10:23:58;99953.75;;;17.04;36.82
60240;BME280;46102;39.012;-7.064;2023-02-04T10:26:00;99956.00;;;17.28;36.22
60240;BME280;46102;39.012;-7.064;2023-02-04T10:28:01;99954.19;;;17.41;36.34
60240;BME280;46102;39.012;-7.064;2023-02-04T10:30:01;99954.66;;;17.61;36.50
60240;BME280;46102;39.012;-7.064;2023-02-04T10:32:02;99955.94;;;17.72;36.55
60240;BME280;46102;39.012;-7.064;2023-02-04T10:34:15;99956.22;;;17.79;36.59
60240;BME280;46102;39.012;-7.064;2023-02-04T10:36:16;99955.75;;;17.86;36.11
60240;BME280;46102;39.012;-7.064;2023-02-04T10:38:17;99945.13;;;17.88;36.07
60240;BME280;46102;39.012;-7.064;2023-02-04T10:40:33;99945.06;;;17.97;36.29
60240;BME280;46102;39.012;-7.064;2023-02-04T10:42:34;99941.31;;;18.01;35.97
60240;BME280;46102;39.012;-7.064;2023-02-04T10:44:35;99944.50;;;18.12;36.03